Race Results for…
Oral-B Glide Floss Bridge to Bridge Run

August 26, 2018 Results presented by Dignity Health and timed by SVE Timing
Participants:
3820
Last Updated:
9/24/2018 2:39:48 PM

Results are preliminary for 3 days.  Finish video will be posted Monday.

Stats

Leaderboards

Jump to a Leaderboard

5K

Male - Overall
Bib Name Chip Elapsed Pace City Age
1 5162 ANTHONY CORTES 00:17:10 05:32 min/mile HALF MOON BAY 24
2 5393 DAN LASKER 00:19:04 06:09 min/mile SAN FRANCISCO 24
3 5151 BRIAN COLLETT 00:19:21 06:14 min/mile BERKELEY 34
Female - Overall
Bib Name Chip Elapsed Pace City Age
1 5543 ELYSHA OMOOMY 00:21:23 06:53 min/mile SAN FRANCISCO 32
2 5067 JANELLE BICKTA 00:22:35 07:17 min/mile SAN FRANCISCO 27
3 5209 ERIN FAN 00:22:41 07:19 min/mile SAN FRANCISCO 29

12K

Male - Overall
Bib Name Chip Elapsed Pace City Age
1 62 LACHLAN ASPINALL 00:39:53 05:19 min/mile MITCHAM 33
2 2453 AIDAN SCHRAER 00:40:08 05:21 min/mile VACAVILLE 23
3 2145 SELVIN HENRIQUEZ 00:40:38 05:25 min/mile 43
Female - Overall
Bib Name Chip Elapsed Pace City Age
1 2447 CAITRIONA JENNINGS 00:45:26 06:03 min/mile DUBLIN 38
2 2653 BORI NEMETH 00:45:34 06:04 min/mile WALNUT CREEK 17
3 316 AILEEN COLE 00:45:55 06:07 min/mile SAN FRANCISCO 26

Overall Results

Tip: Swipe the results table to view more.
2482 entrants …
12K Results
Bib Name City Chip Elapsed Pace Division Div Place Age Age Place Gender Gender Place
62 LACHLAN ASPINALL MITCHAM 00:39:53 05:19 min/mile 12K 1 33 O/A M 1
2453 AIDAN SCHRAER VACAVILLE 00:40:08 05:21 min/mile 12K 2 23 O/A M 2
2145 SELVIN HENRIQUEZ 00:40:38 05:25 min/mile 12K 3 43 O/A M 3
2443 BRYAN KELLY LIVERMORE 00:40:54 05:27 min/mile 12K 4 35 1 M 4
1585 JAMES TIMBRELL SAN FRANCISCO 00:41:07 05:28 min/mile 12K 5 35 2 M 5
2266 PAUL GHIDOSSI 00:41:12 05:29 min/mile 12K 6 52 1 M 6
2246 LUIS MENDEZ 00:42:18 05:38 min/mile 12K 7 47 1 M 7
1179 BRENDAN NICHOLS SAN FRANCISCO 00:43:11 05:45 min/mile 12K 8 26 1 M 8
2323 BENEDIKT LASKA 00:45:14 06:01 min/mile 12K 9 27 2 M 9
2327 BEN LATORRACA 00:45:20 06:02 min/mile 12K 10 37 3 M 10
2447 CAITRIONA JENNINGS DUBLIN 00:45:26 06:03 min/mile 12K 11 38 O/A F 1
2358 TIM SPAULDING 00:45:28 06:03 min/mile 12K 12 39 4 M 11
2197 ALEX VON OECH 00:45:29 06:03 min/mile 12K 13 34 1 M 12
905 MATTHEW LARKINS WALNUT CREEK 00:45:30 06:04 min/mile 12K 14 26 3 M 13
2243 DOMINIC PADRE 00:45:33 06:04 min/mile 12K 15 16 1 M 14
2653 BORI NEMETH WALNUT CREEK 00:45:34 06:04 min/mile 12K 16 17 O/A F 2
1354 JULIAN ROBINSON OAKLAND 00:45:38 06:05 min/mile 12K 17 40 1 M 15
1312 ALEJANDRO RAMIREZ HAYWARD 00:45:41 06:05 min/mile 12K 18 53 2 M 16
2331 ADAM LITTKE 00:45:52 06:06 min/mile 12K 19 44 2 M 17
130 JACOB BERKMAN SAN FRANCISCO 00:45:55 06:07 min/mile 12K 20 39 5 M 18
316 AILEEN COLE SAN FRANCISCO 00:45:55 06:07 min/mile 12K 21 26 O/A F 3
337 AMANDA CORTEZ SAN JOSE 00:46:00 06:08 min/mile 12K 22 0 0 F 0
1178 VINH NGUYEN OAKLAND 00:46:00 06:08 min/mile 12K 23 31 2 M 19
2311 RAMSES BOIVIN 00:46:06 06:08 min/mile 12K 24 44 3 M 20
237 MICHAEL CASSIN SAN JOSE 00:46:09 06:09 min/mile 12K 25 53 3 M 21
1781 MICHAEL MAHER SAN FRANCISCO 00:46:12 06:09 min/mile 12K 26 33 3 M 22
2238 CHRISTOPHER RAMIREZ 00:46:14 06:09 min/mile 12K 27 15 2 M 23
1217 BERNARDO ORTEGA MADERA 00:46:16 06:10 min/mile 12K 28 33 4 M 24
611 CHRISTOPHER GUERRERO SALINAS 00:46:21 06:10 min/mile 12K 29 34 5 M 25
2319 JENNIFER YIP 00:46:22 06:10 min/mile 12K 30 38 1 F 4
2233 KARSTEN GUTHRIDGE 00:46:23 06:11 min/mile 12K 31 47 2 M 26
2210 KIRBY COOL 00:46:24 06:11 min/mile 12K 32 26 4 M 27
2237 DIEGO SALGUES 00:46:30 06:12 min/mile 12K 33 17 3 M 28
1325 MICHAEL REDDING SAN FRANCISCO 00:46:31 06:12 min/mile 12K 34 32 6 M 29
2245 EMILY PEREZ 00:46:34 06:12 min/mile 12K 35 17 1 F 5
935 ADAM LEE SAN FRANCISCO 00:46:37 06:12 min/mile 12K 36 35 6 M 30
219 KELLY CAMPAGNA SAN JOSE 00:46:41 06:13 min/mile 12K 37 49 1 F 6
1982 BRETT LARSON SAN FRANCISCO 00:46:52 06:14 min/mile 12K 38 37 7 M 31
2152 BALLARDO WUG 00:46:53 06:15 min/mile 12K 39 44 4 M 32
2332 KAREN ECKBERG 00:46:55 06:15 min/mile 12K 40 33 1 F 7
2134 NICHOLAS FESSENDEN 00:47:06 06:16 min/mile 12K 41 33 7 M 33
1545 MICHELLE SUMNER SAN FRANCISCO 00:47:18 06:18 min/mile 12K 42 24 1 F 8
2060 MIYA HIRABAYASHI 00:47:24 06:19 min/mile 12K 43 39 2 F 9
2219 NOAH TULLER 00:47:26 06:19 min/mile 12K 44 27 5 M 34
2239 GABE TREVINO 00:47:33 06:20 min/mile 12K 45 17 4 M 35
1162 DUSTIN NEEDHAM OAKLEY 00:47:34 06:20 min/mile 12K 46 35 8 M 36
617 JUERG GURTNER OAKLAND 00:47:45 06:22 min/mile 12K 47 33 8 M 37
936 GRANT LEE SAN JOSE 00:47:48 06:22 min/mile 12K 48 31 9 M 38
365 DIANA D ACHILLE DENVILLE 00:47:58 06:23 min/mile 12K 49 26 1 F 10
863 JIRI KLECKA SAN JOSE 00:48:02 06:24 min/mile 12K 50 46 3 M 39
2482 entrants …

Winners

Tip: Slide the results table left and right to view more.
Overall
Bib Name City Chip Elapsed Pace Division Div Place Age Age Place Gender Gender Place
62 LACHLAN ASPINALL MITCHAM 00:39:53 05:19 min/mile 12K 1 33 O/A M 1
2453 AIDAN SCHRAER VACAVILLE 00:40:08 05:21 min/mile 12K 2 23 O/A M 2
2145 SELVIN HENRIQUEZ 00:40:38 05:25 min/mile 12K 3 43 O/A M 3
2447 CAITRIONA JENNINGS DUBLIN 00:45:26 06:03 min/mile 12K 11 38 O/A F 1
2653 BORI NEMETH WALNUT CREEK 00:45:34 06:04 min/mile 12K 16 17 O/A F 2
316 AILEEN COLE SAN FRANCISCO 00:45:55 06:07 min/mile 12K 21 26 O/A F 3
1 - 14
Bib Name City Chip Elapsed Pace Division Div Place Age Age Place Gender Gender Place
470 JACK FARRELL SAN FRANCISCO 01:05:11 08:41 min/mile 12K 512 10 1 M 360
1117 JANSEN MOK SAN JOSE 01:06:12 08:49 min/mile 12K 548 14 2 M 384
2015 WILLIAM DAVITT WILTON 01:10:39 09:25 min/mile 12K 777 11 3 M 499
1581 DANTE THONE PACIFICA 01:11:53 09:35 min/mile 12K 870 14 4 M 541
193 ALEKSANDER BRYAN TEMPLETON 01:17:33 10:20 min/mile 12K 1170 12 5 M 660
2244 NATALIE PEREZ 00:53:09 07:05 min/mile 12K 84 13 1 F 19
2168 ALBA SHIRLEY 01:07:37 09:00 min/mile 12K 628 11 2 F 176
2460 MADEINA ODONNELL SAN FRANCISCO 01:13:43 09:49 min/mile 12K 974 14 3 F 354
801 HILARY JOHNSTON LARKSPUR 01:15:12 10:01 min/mile 12K 1059 13 4 F 410
2189 AMELIA VINTON 01:19:47 10:38 min/mile 12K 1278 14 5 F 534
15 - 19
Bib Name City Chip Elapsed Pace Division Div Place Age Age Place Gender Gender Place
2243 DOMINIC PADRE 00:45:33 06:04 min/mile 12K 15 16 1 M 14
2238 CHRISTOPHER RAMIREZ 00:46:14 06:09 min/mile 12K 27 15 2 M 23
2237 DIEGO SALGUES 00:46:30 06:12 min/mile 12K 33 17 3 M 28
2239 GABE TREVINO 00:47:33 06:20 min/mile 12K 45 17 4 M 35
2236 MATTHEW GELLER 00:49:59 06:39 min/mile 12K 57 16 5 M 44
2245 EMILY PEREZ 00:46:34 06:12 min/mile 12K 35 17 1 F 5
1393 MISTER SAECHAO MARTINEZ 00:54:52 07:18 min/mile 12K 120 18 2 F 27
1394 SITA SAECHAO MARTINEZ 00:54:52 07:18 min/mile 12K 121 18 3 F 28
2241 CLAIRE NOCON 01:00:00 08:00 min/mile 12K 292 15 4 F 63
2240 DANIELLE PEREZ 01:00:00 08:00 min/mile 12K 293 15 5 F 64
19 - 24
Bib Name City Chip Elapsed Pace Division Div Place Age Age Place Gender Gender Place
2012 DANNY CARPENTIER BALOUGH ALAMO 00:51:49 06:54 min/mile 12K 65 20 1 M 52
2123 JADEN GROTKE 00:51:51 06:54 min/mile 12K 66 22 2 M 53
652 WATSON HANSON MENLO PARK 00:52:42 07:01 min/mile 12K 80 22 3 M 61
2306 SAMSON WU 00:52:49 07:02 min/mile 12K 81 24 4 M 62
874 SEAN KOPACK VACAVILLE 00:53:34 07:08 min/mile 12K 93 24 5 M 70
1545 MICHELLE SUMNER SAN FRANCISCO 00:47:18 06:18 min/mile 12K 42 24 1 F 8
160 TINA BOWERS MENLO PARK 00:52:40 07:01 min/mile 12K 79 21 2 F 18
71 RAQUEL AVILA SOUTH SAN FRANCISCO 00:53:25 07:07 min/mile 12K 90 24 3 F 22
1802 KATIE TORIGOE SAN FRANCISCO 00:57:56 07:43 min/mile 12K 204 24 4 F 42
2371 CAMILA HATZ 00:58:12 07:45 min/mile 12K 211 24 5 F 44
25 - 29
Bib Name City Chip Elapsed Pace Division Div Place Age Age Place Gender Gender Place
1179 BRENDAN NICHOLS SAN FRANCISCO 00:43:11 05:45 min/mile 12K 8 26 1 M 8
2323 BENEDIKT LASKA 00:45:14 06:01 min/mile 12K 9 27 2 M 9
905 MATTHEW LARKINS WALNUT CREEK 00:45:30 06:04 min/mile 12K 14 26 3 M 13
2210 KIRBY COOL 00:46:24 06:11 min/mile 12K 32 26 4 M 27
2219 NOAH TULLER 00:47:26 06:19 min/mile 12K 44 27 5 M 34
365 DIANA D ACHILLE DENVILLE 00:47:58 06:23 min/mile 12K 49 26 1 F 10
1411 KELSEY SANTISTEBAN CASTRO VALLEY 00:48:34 06:28 min/mile 12K 51 25 2 F 11
100 INGRID BARRIENTOS OAKLAND 00:48:39 06:29 min/mile 12K 54 25 3 F 12
2457 VANESSA GRICHINE SAN FRANCISCO 00:52:21 06:58 min/mile 12K 72 28 4 F 15
2151 EMILY HOU 00:52:33 07:00 min/mile 12K 76 25 5 F 16
30 - 34
Bib Name City Chip Elapsed Pace Division Div Place Age Age Place Gender Gender Place
2197 ALEX VON OECH 00:45:29 06:03 min/mile 12K 13 34 1 M 12
1178 VINH NGUYEN OAKLAND 00:46:00 06:08 min/mile 12K 23 31 2 M 19
1781 MICHAEL MAHER SAN FRANCISCO 00:46:12 06:09 min/mile 12K 26 33 3 M 22
1217 BERNARDO ORTEGA MADERA 00:46:16 06:10 min/mile 12K 28 33 4 M 24
611 CHRISTOPHER GUERRERO SALINAS 00:46:21 06:10 min/mile 12K 29 34 5 M 25
2332 KAREN ECKBERG 00:46:55 06:15 min/mile 12K 40 33 1 F 7
423 KRISTIN DUHAIN SANTA CLARA 00:52:39 07:01 min/mile 12K 78 32 2 F 17
2229 MEAGAN MCCRAY 00:53:15 07:06 min/mile 12K 87 31 3 F 21
1903 MARANDA CIMENO SAN FRANCISCO 00:58:47 07:50 min/mile 12K 239 31 4 F 47
2472 KYNDRA BELDEN WALNUT CREEK 00:58:53 07:51 min/mile 12K 243 30 5 F 48
35 - 39
Bib Name City Chip Elapsed Pace Division Div Place Age Age Place Gender Gender Place
2443 BRYAN KELLY LIVERMORE 00:40:54 05:27 min/mile 12K 4 35 1 M 4
1585 JAMES TIMBRELL SAN FRANCISCO 00:41:07 05:28 min/mile 12K 5 35 2 M 5
2327 BEN LATORRACA 00:45:20 06:02 min/mile 12K 10 37 3 M 10
2358 TIM SPAULDING 00:45:28 06:03 min/mile 12K 12 39 4 M 11
130 JACOB BERKMAN SAN FRANCISCO 00:45:55 06:07 min/mile 12K 20 39 5 M 18
2319 JENNIFER YIP 00:46:22 06:10 min/mile 12K 30 38 1 F 4
2060 MIYA HIRABAYASHI 00:47:24 06:19 min/mile 12K 43 39 2 F 9
1284 ARIANA PORTEZ PLEASANT HILL 00:52:15 06:58 min/mile 12K 69 38 3 F 13
1494 JULIA SNIDER WALNUT CREEK 00:53:15 07:06 min/mile 12K 86 36 4 F 20
1893 KAILEY LARSON SAN FRANCISCO 00:54:37 07:16 min/mile 12K 116 37 5 F 26
40 - 44
Bib Name City Chip Elapsed Pace Division Div Place Age Age Place Gender Gender Place
1354 JULIAN ROBINSON OAKLAND 00:45:38 06:05 min/mile 12K 17 40 1 M 15
2331 ADAM LITTKE 00:45:52 06:06 min/mile 12K 19 44 2 M 17
2311 RAMSES BOIVIN 00:46:06 06:08 min/mile 12K 24 44 3 M 20
2152 BALLARDO WUG 00:46:53 06:15 min/mile 12K 39 44 4 M 32
755 SERGEY IOFFE SAN FRANCISCO 00:50:40 06:45 min/mile 12K 59 42 5 M 46
117 LINDA BECKER SAN FRANCISCO 00:57:27 07:39 min/mile 12K 192 44 1 F 39
2200 CYNTHIA BLUM 00:58:27 07:47 min/mile 12K 220 41 2 F 45
845 DAYNA KEYES SAN FRANCISCO 00:59:07 07:52 min/mile 12K 251 40 3 F 53
1605 TRACY TRAN PINOLE 00:59:13 07:53 min/mile 12K 257 41 4 F 55
1024 JENNIFER MAHONEY SAN FRANCISCO 00:59:25 07:55 min/mile 12K 263 44 5 F 56
45 - 49
Bib Name City Chip Elapsed Pace Division Div Place Age Age Place Gender Gender Place
2246 LUIS MENDEZ 00:42:18 05:38 min/mile 12K 7 47 1 M 7
2233 KARSTEN GUTHRIDGE 00:46:23 06:11 min/mile 12K 31 47 2 M 26
863 JIRI KLECKA SAN JOSE 00:48:02 06:24 min/mile 12K 50 46 3 M 39
167 JAKE BRAGONIER SAUSALITO 00:50:18 06:42 min/mile 12K 58 45 4 M 45
1966 JOHN RAINEY LOS GATOS 00:51:34 06:52 min/mile 12K 63 47 5 M 50
219 KELLY CAMPAGNA SAN JOSE 00:46:41 06:13 min/mile 12K 37 49 1 F 6
34 LUCIA ALVAREZ BURLINGAME 00:53:55 07:11 min/mile 12K 98 47 2 F 24
839 HOLLY KELLY FAIRFIELD 00:59:12 07:53 min/mile 12K 256 47 3 F 54
828 NANCY KAYE SAN FRANCISCO 01:03:04 08:24 min/mile 12K 410 45 4 F 95
981 ANNALISA LOAR REDWOOD CITY 01:03:32 08:28 min/mile 12K 431 49 5 F 104
50 - 54
Bib Name City Chip Elapsed Pace Division Div Place Age Age Place Gender Gender Place
2266 PAUL GHIDOSSI 00:41:12 05:29 min/mile 12K 6 52 1 M 6
1312 ALEJANDRO RAMIREZ HAYWARD 00:45:41 06:05 min/mile 12K 18 53 2 M 16
237 MICHAEL CASSIN SAN JOSE 00:46:09 06:09 min/mile 12K 25 53 3 M 21
2646 ERIC PROSNITZ SAN FRANCISCO 00:51:52 06:54 min/mile 12K 67 52 4 M 54
1664 JAMES WARD SAN FRANCISCO 00:54:19 07:14 min/mile 12K 103 51 5 M 77
1180 GINA NICITA SAN FRANCISCO 01:01:04 08:08 min/mile 12K 326 52 1 F 72
90 HEATHER BANKS AMERICAN CANYON 01:01:16 08:10 min/mile 12K 334 50 2 F 74
1726 YIANNA XENAKIS LAFAYETTE 01:02:02 08:16 min/mile 12K 364 50 3 F 83
1770 KALI ZIVITZ SAN FRANCISCO 01:02:04 08:16 min/mile 12K 371 50 4 F 84
1869 JUDY ROMPA PORTLAND 01:02:18 08:18 min/mile 12K 384 54 5 F 87
55 - 59
Bib Name City Chip Elapsed Pace Division Div Place Age Age Place Gender Gender Place
1595 RICHARD TORIGGINO ALAMO 00:58:29 07:47 min/mile 12K 222 57 1 M 170
725 ROGER HORWITZ MENLO PARK 00:58:51 07:50 min/mile 12K 242 56 2 M 186
346 MARK CRANE FLAGSTAFF 00:59:27 07:55 min/mile 12K 265 55 3 M 199
1064 LENNY MAUGHAN SAN FRANCISCO 00:59:29 07:55 min/mile 12K 268 57 4 M 202
1185 DOUGLAS NOORDSY PALO ALTO 00:59:34 07:56 min/mile 12K 274 58 5 M 206
844 HEATHER KETTMANN SAN JOSE 00:57:10 07:37 min/mile 12K 179 55 1 F 37
1866 MARILOU MCFARLANE MILL VALLEY 01:00:58 08:07 min/mile 12K 322 57 2 F 71
2401 KAREN WHITENACK KENSINGTON 01:01:47 08:14 min/mile 12K 352 59 3 F 80
2187 SHARRON REISS-MILLER 01:01:47 08:14 min/mile 12K 353 59 4 F 81
1752 JODY YOXSIMER PASADENA 01:03:21 08:26 min/mile 12K 421 58 5 F 97
60 - 64
Bib Name City Chip Elapsed Pace Division Div Place Age Age Place Gender Gender Place
2652 RICHARD LANGRON LEYTONSTONE LONDON 00:57:11 07:37 min/mile 12K 181 60 1 M 140
681 JOHN HENRY PLEASANTON 00:59:14 07:53 min/mile 12K 259 63 2 M 195
2339 EDGAR YEE 01:02:33 08:20 min/mile 12K 393 64 3 M 292
1216 ROBERTO OROZCO LIVERMORE 01:03:15 08:26 min/mile 12K 417 60 4 M 308
791 JAMIE JOHNSON HOUSTON 01:03:57 08:31 min/mile 12K 452 62 5 M 326
1863 MARIAN ZALEWSKI DANVILLE 00:56:02 07:28 min/mile 12K 147 61 1 F 31
2618 LISA HERDER SAN FRANCISCO 01:07:14 08:57 min/mile 12K 604 60 2 F 169
1799 MARIANNE PLUNDER PORTOLA VALLEY 01:10:56 09:27 min/mile 12K 798 63 3 F 265
344 ANGELA CRAIG PALO ALTO 01:10:59 09:27 min/mile 12K 804 61 4 F 267
2461 GRACE NADOLNY CUPERTINO 01:11:00 09:28 min/mile 12K 808 61 5 F 270
65 - 69
Bib Name City Chip Elapsed Pace Division Div Place Age Age Place Gender Gender Place
1273 CHRISTOPHER POHL UNION CITY 00:56:58 07:35 min/mile 12K 171 67 1 M 132
56 ROB ARATHOON TIBURON 01:00:06 08:00 min/mile 12K 296 66 2 M 222
2204 THOMAS WHEELER 01:01:47 08:14 min/mile 12K 354 65 3 M 263
1524 GREGORY STEPANICICH SAN RAFAEL 01:06:18 08:50 min/mile 12K 555 67 4 M 387
2275 PETER CONNOLLY SANTA CRUZ 01:06:35 08:52 min/mile 12K 571 68 5 M 396
1609 TERRI TROUTT CITRUS HEIGHTS 00:52:19 06:58 min/mile 12K 70 65 1 F 14
118 CINDY BECKLEY OAKLAND 01:23:19 11:06 min/mile 12K 1400 69 2 F 607
1074 VIVIAN MCCLURE GREENBRAE 01:32:02 12:16 min/mile 12K 1651 67 3 F 762
1527 LORNA STEVENS SAN FRANCISCO 01:32:04 12:16 min/mile 12K 1652 65 4 F 763
2608 PATTY MCPEAK SAN FRANCISCO 01:33:20 12:26 min/mile 12K 1681 67 5 F 782
70 - 74
Bib Name City Chip Elapsed Pace Division Div Place Age Age Place Gender Gender Place
413 MICHAEL DOVE SALINAS 01:01:36 08:12 min/mile 12K 346 71 1 M 260
141 FERNANDO BLANCO LOS ALTOS 01:02:48 08:22 min/mile 12K 399 71 2 M 296
2471 K. DOUGLAS BROOMS 01:04:35 08:36 min/mile 12K 477 71 3 M 341
1941 JIM CHANDLER LAFAYETTE 01:07:12 08:57 min/mile 12K 601 70 4 M 413
1293 GERALD PRICE LOS ALTOS 01:18:01 10:24 min/mile 12K 1201 70 5 M 672
1014 MARIAN LYONS SAN FRANCISCO 01:29:21 11:54 min/mile 12K 1595 71 1 F 727
227 DENISE CARR REDWOOD CITY 01:49:23 14:35 min/mile 12K 1881 73 2 F 905
545 JAN GAYNOR SANTA CLARA 01:55:38 15:25 min/mile 12K 1924 73 3 F 936
630 MELINDA HABER SAN FRANCISCO 02:00:58 16:07 min/mile 12K 1949 73 4 F 949
1647 CANDY VERNETTI CAYUCOS 02:01:00 16:08 min/mile 12K 1950 74 5 F 950
75 - 99
Bib Name City Chip Elapsed Pace Division Div Place Age Age Place Gender Gender Place
969 BEN LIPSCHUETZ LOS ALTOS 01:12:19 09:38 min/mile 12K 892 78 1 M 551
1656 AVARD WALKER SAN RAFAEL 01:16:22 10:10 min/mile 12K 1122 76 2 M 642
2179 JIM KELLY 01:43:48 13:50 min/mile 12K 1837 80 3 M 899
598 THERESE GRENCHIK SAN FRANCISCO 02:00:33 16:04 min/mile 12K 1947 75 1 F 947

Race Info

Participants:
3820
Last Updated:
9/24/2018 2:39:48 PM

Results are preliminary for 3 days.  Finish video will be posted Monday.

Tip: Swipe the results table to view more.

Search for Name, Bib, City, State or Team
in the field above… by clicking the icon below…

Notes & Race Statistics

12K VIRTUAL - 0


Male
Total Finishers Avg Pace
0 00:00

Female
Total Finishers Avg Pace
0 00:00

5K VIRTUAL - 0


Male
Total Finishers Avg Pace
0 00:00

Female
Total Finishers Avg Pace
0 00:00

12K - 2061


Male
Total Finishers Avg Pace
996 09:45

Female
Total Finishers Avg Pace
1065 11:17

5K - 1085


Male
Total Finishers Avg Pace
406 13:28

Female
Total Finishers Avg Pace
679 15:09
Timed using RM Timing Systems
Take control of your event
A product of US Sports Timing

Have a question or need to make a correction?

Submit a Result Correction